Time,TemperatureF,DewpointF,PressureIn,WindDirection,WindDirectionDegrees,WindSpeedMPH,WindSpeedGustMPH,Humidity,HourlyPrecipIn,Conditions,Clouds,dailyrainin,SoftwareType,DateUTC
2013-02-28 00:01:00,22.7,18.6,30.53,NNE,14,0.0,0.0,84,0.00,,,0.00,HR-IXPWINDi_r2_v1.2.,2013-02-28 07:01:00,
2013-02-28 00:06:00,23.1,19.0,30.53,NNE,14,0.0,0.0,84,0.00,,,0.00,HR-IXPWINDi_r2_v1.2.,2013-02-28 07:06:00,
2013-02-28 00:11:00,23.3,18.6,30.53,NNE,15,0.0,0.0,82,0.00,,,0.00,HR-IXPWINDi_r2_v1.2.,2013-02-28 07:11:00,
2013-02-28 00:17:00,23.1,18.4,30.53,NNE,14,0.0,0.0,82,0.00,,,0.00,HR-IXPWINDi_r2_v1.2.,2013-02-28 07:17:00,
2013-02-28 00:22:00,23.5,18.5,30.54,NNW,344,0.0,0.0,81,0.00,,,0.00,HR-IXPWINDi_r2_v1.2.,2013-02-28 07:22:00,
2013-02-28 00:27:00,23.2,18.3,30.54,NNW,344,0.0,0.0,81,0.00,,,0.00,HR-IXPWINDi_r2_v1.2.,2013-02-28 07:27:00,
2013-02-28 00:33:00,22.7,17.8,30.54,NNW,344,0.0,0.0,81,0.00,,,0.00,HR-IXPWINDi_r2_v1.2.,2013-02-28 07:33:00,
2013-02-28 00:38:00,22.4,17.8,30.55,NNW,344,0.0,0.0,82,0.00,,,0.00,HR-IXPWINDi_r2_v1.2.,2013-02-28 07:38:00,
2013-02-28 00:43:00,22.1,17.5,30.55,NNW,344,0.0,0.0,82,0.00,,,0.00,HR-IXPWINDi_r2_v1.2.,2013-02-28 07:43:00,
2013-02-28 00:49:00,22.0,17.6,30.55,NNW,344,0.0,0.0,83,0.00,,,0.00,HR-IXPWINDi_r2_v1.2.,2013-02-28 07:49:00,
2013-02-28 00:54:00,21.9,17.6,30.55,ENE,72,0.0,0.0,83,0.00,,,0.00,HR-IXPWINDi_r2_v1.2.,2013-02-28 07:54:00,
2013-02-28 00:59:00,21.8,17.5,30.55,ENE,72,0.0,0.0,83,0.00,,,0.00,HR-IXPWINDi_r2_v1.2.,2013-02-28 07:59:00,
2013-02-28 01:04:00,21.7,17.6,30.56,ENE,72,0.0,0.0,84,0.00,,,0.00,HR-IXPWINDi_r2_v1.2.,2013-02-28 08:04:00,
2013-02-28 01:09:00,21.6,17.3,30.56,ENE,72,0.0,0.0,83,0.00,,,0.00,HR-IXPWINDi_r2_v1.2.,2013-02-28 08:09:00,
2013-02-28 01:14:00,21.5,17.4,30.56,ENE,72,0.0,0.0,84,0.00,,,0.00,HR-IXPWINDi_r2_v1.2.,2013-02-28 08:14:00,
2013-02-28 01:20:00,21.2,17.1,30.57,ENE,72,0.0,0.0,84,0.00,,,0.00,HR-IXPWINDi_r2_v1.2.,2013-02-28 08:20:00,
2013-02-28 01:25:00,21.2,17.4,30.57,ENE,72,0.0,0.0,85,0.00,,,0.00,HR-IXPWINDi_r2_v1.2.,2013-02-28 08:25:00,
2013-02-28 01:30:00,21.3,17.5,30.57,ENE,72,0.0,0.0,85,0.00,,,0.00,HR-IXPWINDi_r2_v1.2.,2013-02-28 08:30:00,
2013-02-28 01:35:00,21.4,17.6,30.57,ENE,72,0.0,0.0,85,0.00,,,0.00,HR-IXPWINDi_r2_v1.2.,2013-02-28 08:35:00,
2013-02-28 01:40:00,21.2,17.4,30.57,ENE,72,0.0,0.0,85,0.00,,,0.00,HR-IXPWINDi_r2_v1.2.,2013-02-28 08:40:00,
2013-02-28 01:45:00,21.1,17.3,30.57,ENE,72,0.0,0.0,85,0.00,,,0.00,HR-IXPWINDi_r2_v1.2.,2013-02-28 08:45:00,
2013-02-28 01:50:00,20.9,17.1,30.56,ENE,72,0.0,0.0,85,0.00,,,0.00,HR-IXPWINDi_r2_v1.2.,2013-02-28 08:50:00,
2013-02-28 01:56:00,20.7,17.2,30.57,ENE,71,0.0,0.0,86,0.00,,,0.00,HR-IXPWINDi_r2_v1.2.,2013-02-28 08:56:00,
2013-02-28 02:01:00,20.4,16.9,30.57,ENE,74,0.0,0.0,86,0.00,,,0.00,HR-IXPWINDi_r2_v1.2.,2013-02-28 09:01:00,
2013-02-28 02:06:00,20.4,16.9,30.57,NE,55,0.0,1.0,86,0.00,,,0.00,HR-IXPWINDi_r2_v1.2.,2013-02-28 09:06:00,
2013-02-28 02:11:00,20.3,16.8,30.57,NE,56,0.0,1.0,86,0.00,,,0.00,HR-IXPWINDi_r2_v1.2.,2013-02-28 09:11:00,
2013-02-28 02:17:00,20.2,16.7,30.56,SE,136,0.0,1.0,86,0.00,,,0.00,HR-IXPWINDi_r2_v1.2.,2013-02-28 09:17:00,
2013-02-28 02:22:00,20.2,16.7,30.56,SE,135,0.0,1.0,86,0.00,,,0.00,HR-IXPWINDi_r2_v1.2.,2013-02-28 09:22:00,
2013-02-28 02:27:00,20.1,16.9,30.56,SE,135,0.0,0.0,87,0.00,,,0.00,HR-IXPWINDi_r2_v1.2.,2013-02-28 09:27:00,
2013-02-28 02:32:00,20.0,16.8,30.56,SE,132,0.0,0.0,87,0.00,,,0.00,HR-IXPWINDi_r2_v1.2.,2013-02-28 09:32:00,
2013-02-28 02:37:00,19.9,16.4,30.56,SE,132,0.0,0.0,86,0.00,,,0.00,HR-IXPWINDi_r2_v1.2.,2013-02-28 09:37:00,
2013-02-28 02:42:00,19.7,16.5,30.56,SE,132,0.0,0.0,87,0.00,,,0.00,HR-IXPWINDi_r2_v1.2.,2013-02-28 09:42:00,
2013-02-28 02:48:00,19.5,16.0,30.56,SE,132,0.0,0.0,86,0.00,,,0.00,HR-IXPWINDi_r2_v1.2.,2013-02-28 09:48:00,
2013-02-28 02:53:00,19.4,16.2,30.56,South,179,0.0,0.0,87,0.00,,,0.00,HR-IXPWINDi_r2_v1.2.,2013-02-28 09:53:00,
2013-02-28 02:58:00,19.4,16.2,30.55,South,178,0.0,0.0,87,0.00,,,0.00,HR-IXPWINDi_r2_v1.2.,2013-02-28 09:58:00,
2013-02-28 03:04:00,19.3,16.1,30.56,South,190,0.0,0.0,87,0.00,,,0.00,HR-IXPWINDi_r2_v1.2.,2013-02-28 10:04:00,
2013-02-28 03:09:00,19.6,16.4,30.56,West,281,0.0,3.0,87,0.00,,,0.00,HR-IXPWINDi_r2_v1.2.,2013-02-28 10:09:00,
2013-02-28 03:14:00,19.4,15.9,30.56,West,281,0.0,3.0,86,0.00,,,0.00,HR-IXPWINDi_r2_v1.2.,2013-02-28 10:14:00,
2013-02-28 03:19:00,19.2,15.7,30.56,WNW,288,1.0,2.0,86,0.00,,,0.00,HR-IXPWINDi_r2_v1.2.,2013-02-28 10:19:00,
2013-02-28 03:25:00,19.0,15.3,30.56,NNE,22,0.0,2.0,85,0.00,,,0.00,HR-IXPWINDi_r2_v1.2.,2013-02-28 10:25:00,
2013-02-28 03:30:00,18.8,15.1,30.56,NNE,22,0.0,2.0,85,0.00,,,0.00,HR-IXPWINDi_r2_v1.2.,2013-02-28 10:30:00,
2013-02-28 03:35:00,18.6,15.1,30.56,WNW,302,0.0,1.0,86,0.00,,,0.00,HR-IXPWINDi_r2_v1.2.,2013-02-28 10:35:00,
2013-02-28 03:40:00,18.7,15.5,30.56,WNW,302,0.0,1.0,87,0.00,,,0.00,HR-IXPWINDi_r2_v1.2.,2013-02-28 10:40:00,
2013-02-28 03:45:00,18.6,15.1,30.56,WNW,302,0.0,1.0,86,0.00,,,0.00,HR-IXPWINDi_r2_v1.2.,2013-02-28 10:45:00,
2013-02-28 03:50:00,18.5,15.3,30.56,WNW,302,0.0,1.0,87,0.00,,,0.00,HR-IXPWINDi_r2_v1.2.,2013-02-28 10:50:00,
2013-02-28 03:56:00,18.1,14.7,30.56,WNW,302,0.0,0.0,86,0.00,,,0.00,HR-IXPWINDi_r2_v1.2.,2013-02-28 10:56:00,
2013-02-28 04:01:00,17.8,14.4,30.56,WNW,302,0.0,0.0,86,0.00,,,0.00,HR-IXPWINDi_r2_v1.2.,2013-02-28 11:01:00,
2013-02-28 04:06:00,17.9,14.7,30.57,NNW,331,0.0,0.0,87,0.00,,,0.00,HR-IXPWINDi_r2_v1.2.,2013-02-28 11:06:00,
2013-02-28 04:11:00,17.9,14.7,30.56,NNW,331,0.0,0.0,87,0.00,,,0.00,HR-IXPWINDi_r2_v1.2.,2013-02-28 11:11:00,
2013-02-28 04:17:00,17.8,14.6,30.56,NNW,331,0.0,0.0,87,0.00,,,0.00,HR-IXPWINDi_r2_v1.2.,2013-02-28 11:17:00,
2013-02-28 04:22:00,17.7,14.5,30.57,NNW,331,0.0,0.0,87,0.00,,,0.00,HR-IXPWINDi_r2_v1.2.,2013-02-28 11:22:00,
2013-02-28 04:27:00,17.4,14.2,30.57,NNW,332,0.0,0.0,87,0.00,,,0.00,HR-IXPWINDi_r2_v1.2.,2013-02-28 11:27:00,
2013-02-28 04:32:00,17.5,14.6,30.57,NNW,331,0.0,0.0,88,0.00,,,0.00,HR-IXPWINDi_r2_v1.2.,2013-02-28 11:32:00,
2013-02-28 04:38:00,17.2,14.0,30.57,NNW,331,0.0,0.0,87,0.00,,,0.00,HR-IXPWINDi_r2_v1.2.,2013-02-28 11:38:00,
2013-02-28 04:43:00,17.3,14.4,30.57,North,358,0.0,0.0,88,0.00,,,0.00,HR-IXPWINDi_r2_v1.2.,2013-02-28 11:43:00,
2013-02-28 04:48:00,17.7,15.0,30.57,ENE,63,0.0,0.0,89,0.00,,,0.00,HR-IXPWINDi_r2_v1.2.,2013-02-28 11:48:00,
2013-02-28 04:53:00,18.2,15.0,30.57,ESE,123,0.0,1.0,87,0.00,,,0.00,HR-IXPWINDi_r2_v1.2.,2013-02-28 11:53:00,
2013-02-28 04:59:00,18.4,14.9,30.57,ESE,122,0.0,1.0,86,0.00,,,0.00,HR-IXPWINDi_r2_v1.2.,2013-02-28 11:59:00,
2013-02-28 05:04:00,18.5,14.8,30.58,East,100,0.0,0.0,85,0.00,,,0.00,HR-IXPWINDi_r2_v1.2.,2013-02-28 12:04:00,
2013-02-28 05:09:00,18.8,14.8,30.58,East,100,0.0,0.0,84,0.00,,,0.00,HR-IXPWINDi_r2_v1.2.,2013-02-28 12:09:00,
2013-02-28 05:14:00,18.9,14.6,30.59,East,99,0.0,0.0,83,0.00,,,0.00,HR-IXPWINDi_r2_v1.2.,2013-02-28 12:14:00,
2013-02-28 05:20:00,19.0,14.4,30.59,East,98,0.0,0.0,82,0.00,,,0.00,HR-IXPWINDi_r2_v1.2.,2013-02-28 12:20:00,
2013-02-28 05:25:00,19.3,14.5,30.59,ESE,113,0.0,0.0,81,0.00,,,0.00,HR-IXPWINDi_r2_v1.2.,2013-02-28 12:25:00,
2013-02-28 05:30:00,19.6,14.5,30.59,ENE,78,2.0,3.0,80,0.00,,,0.00,HR-IXPWINDi_r2_v1.2.,2013-02-28 12:30:00,
2013-02-28 05:35:00,19.8,14.4,30.59,ESE,103,0.0,3.0,79,0.00,,,0.00,HR-IXPWINDi_r2_v1.2.,2013-02-28 12:35:00,
2013-02-28 05:40:00,20.2,14.5,30.59,ESE,113,0.0,2.0,78,0.00,,,0.00,HR-IXPWINDi_r2_v1.2.,2013-02-28 12:40:00,
2013-02-28 05:46:00,20.4,14.4,30.60,ESE,113,0.0,2.0,77,0.00,,,0.00,HR-IXPWINDi_r2_v1.2.,2013-02-28 12:46:00,
2013-02-28 05:51:00,19.9,13.9,30.60,ESE,113,2.0,3.0,77,0.00,,,0.00,HR-IXPWINDi_r2_v1.2.,2013-02-28 12:51:00,
2013-02-28 05:56:00,18.9,13.5,30.60,WNW,293,1.0,3.0,79,0.00,,,0.00,HR-IXPWINDi_r2_v1.2.,2013-02-28 12:56:00,
2013-02-28 06:01:00,18.3,13.5,30.60,NNE,18,0.0,3.0,81,0.00,,,0.00,HR-IXPWINDi_r2_v1.2.,2013-02-28 13:01:00,
2013-02-28 06:06:00,18.0,13.2,30.59,ENE,72,1.0,2.0,81,0.00,,,0.00,HR-IXPWINDi_r2_v1.2.,2013-02-28 13:06:00,
2013-02-28 06:11:00,18.9,14.1,30.59,East,94,2.0,5.0,81,0.00,,,0.00,HR-IXPWINDi_r2_v1.2.,2013-02-28 13:11:00,
2013-02-28 06:16:00,19.9,14.2,30.59,East,88,2.0,6.0,78,0.00,,,0.00,HR-IXPWINDi_r2_v1.2.,2013-02-28 13:16:00,
2013-02-28 06:21:00,20.6,14.3,30.59,ESE,102,3.0,6.0,76,0.00,,,0.00,HR-IXPWINDi_r2_v1.2.,2013-02-28 13:21:00,
2013-02-28 06:27:00,21.1,14.1,30.59,ESE,118,2.0,7.0,74,0.00,,,0.00,HR-IXPWINDi_r2_v1.2.,2013-02-28 13:27:00,
2013-02-28 06:32:00,21.3,14.0,30.59,East,91,4.0,7.0,73,0.00,,,0.00,HR-IXPWINDi_r2_v1.2.,2013-02-28 13:32:00,
2013-02-28 06:37:00,21.4,13.8,30.59,ESE,115,3.0,7.0,72,0.00,,,0.00,HR-IXPWINDi_r2_v1.2.,2013-02-28 13:37:00,
2013-02-28 06:42:00,21.5,13.9,30.59,East,80,3.0,7.0,72,0.00,,,0.00,HR-IXPWINDi_r2_v1.2.,2013-02-28 13:42:00,
2013-02-28 06:47:00,21.4,13.8,30.60,ENE,74,3.0,5.0,72,0.00,,,0.00,HR-IXPWINDi_r2_v1.2.,2013-02-28 13:47:00,
2013-02-28 06:52:00,21.2,13.6,30.60,ENE,58,2.0,5.0,72,0.00,,,0.00,HR-IXPWINDi_r2_v1.2.,2013-02-28 13:52:00,
2013-02-28 06:58:00,21.1,13.5,30.60,East,101,2.0,5.0,72,0.00,,,0.00,HR-IXPWINDi_r2_v1.2.,2013-02-28 13:58:00,
2013-02-28 07:03:00,21.0,13.7,30.60,ESE,108,0.0,5.0,73,0.00,,,0.00,HR-IXPWINDi_r2_v1.2.,2013-02-28 14:03:00,
2013-02-28 07:08:00,21.2,13.6,30.61,East,82,1.0,4.0,72,0.00,,,0.00,HR-IXPWINDi_r2_v1.2.,2013-02-28 14:08:00,
2013-02-28 07:13:00,21.3,13.7,30.61,ESE,105,1.0,3.0,72,0.00,,,0.00,HR-IXPWINDi_r2_v1.2.,2013-02-28 14:13:00,
2013-02-28 07:18:00,21.5,13.9,30.61,ENE,70,0.0,2.0,72,0.00,,,0.00,HR-IXPWINDi_r2_v1.2.,2013-02-28 14:18:00,
2013-02-28 07:23:00,21.7,14.1,30.60,ENE,71,2.0,2.0,72,0.00,,,0.00,HR-IXPWINDi_r2_v1.2.,2013-02-28 14:23:00,
2013-02-28 07:28:00,22.0,14.1,30.61,East,79,2.0,3.0,71,0.00,,,0.00,HR-IXPWINDi_r2_v1.2.,2013-02-28 14:28:00,
2013-02-28 07:34:00,22.4,14.5,30.61,East,84,0.0,4.0,71,0.00,,,0.00,HR-IXPWINDi_r2_v1.2.,2013-02-28 14:34:00,
2013-02-28 07:39:00,22.9,14.6,30.61,ENE,63,1.0,4.0,70,0.00,,,0.00,HR-IXPWINDi_r2_v1.2.,2013-02-28 14:39:00,
2013-02-28 07:44:00,23.2,14.6,30.62,ENE,57,3.0,3.0,69,0.00,,,0.00,HR-IXPWINDi_r2_v1.2.,2013-02-28 14:44:00,
2013-02-28 07:50:00,23.5,14.9,30.62,ENE,61,1.0,3.0,69,0.00,,,0.00,HR-IXPWINDi_r2_v1.2.,2013-02-28 14:50:00,
2013-02-28 07:55:00,23.9,14.9,30.63,East,86,0.0,3.0,68,0.00,,,0.00,HR-IXPWINDi_r2_v1.2.,2013-02-28 14:55:00,
2013-02-28 08:00:00,24.3,15.0,30.63,NE,40,3.0,3.0,67,0.00,,,0.00,HR-IXPWINDi_r2_v1.2.,2013-02-28 15:00:00,
2013-02-28 08:05:00,24.7,14.6,30.63,ENE,70,5.0,7.0,65,0.00,,,0.00,HR-IXPWINDi_r2_v1.2.,2013-02-28 15:05:00,
2013-02-28 08:10:00,24.9,14.5,30.63,NNW,333,1.0,7.0,64,0.00,,,0.00,HR-IXPWINDi_r2_v1.2.,2013-02-28 15:10:00,
2013-02-28 08:15:00,25.4,15.0,30.64,East,86,2.0,7.0,64,0.00,,,0.00,HR-IXPWINDi_r2_v1.2.,2013-02-28 15:15:00,
2013-02-28 08:20:00,26.0,14.8,30.64,ESE,113,2.0,9.0,62,0.00,,,0.00,HR-IXPWINDi_r2_v1.2.,2013-02-28 15:20:00,
2013-02-28 08:25:00,26.3,14.7,30.65,ESE,108,7.0,10.0,61,0.00,,,0.00,HR-IXPWINDi_r2_v1.2.,2013-02-28 15:25:00,
2013-02-28 08:30:00,26.7,14.7,30.65,ESE,108,8.0,12.0,60,0.00,,,0.00,HR-IXPWINDi_r2_v1.2.,2013-02-28 15:30:00,
2013-02-28 08:35:00,26.9,14.1,30.65,ESE,108,5.0,12.0,58,0.00,,,0.00,HR-IXPWINDi_r2_v1.2.,2013-02-28 15:35:00,
2013-02-28 08:41:00,27.5,14.3,30.65,South,169,7.0,12.0,57,0.00,,,0.00,HR-IXPWINDi_r2_v1.2.,2013-02-28 15:41:00,
2013-02-28 08:46:00,28.2,14.1,30.65,SSW,194,4.0,12.0,55,0.00,,,0.00,HR-IXPWINDi_r2_v1.2.,2013-02-28 15:46:00,
2013-02-28 08:51:00,28.1,13.6,30.65,ESE,108,9.0,13.0,54,0.00,,,0.00,HR-IXPWINDi_r2_v1.2.,2013-02-28 15:51:00,
2013-02-28 08:56:00,28.5,14.0,30.65,SE,131,4.0,13.0,54,0.00,,,0.00,HR-IXPWINDi_r2_v1.2.,2013-02-28 15:56:00,
2013-02-28 09:01:00,28.9,13.5,30.65,ESE,111,8.0,13.0,52,0.00,,,0.00,HR-IXPWINDi_r2_v1.2.,2013-02-28 16:01:00,
2013-02-28 09:06:00,29.1,13.3,30.65,East,80,11.0,12.0,51,0.00,,,0.00,HR-IXPWINDi_r2_v1.2.,2013-02-28 16:06:00,
2013-02-28 09:12:00,29.2,12.9,30.65,ESE,108,9.0,14.0,50,0.00,,,0.00,HR-IXPWINDi_r2_v1.2.,2013-02-28 16:12:00,
2013-02-28 09:17:00,29.2,12.9,30.65,East,81,7.0,14.0,50,0.00,,,0.00,HR-IXPWINDi_r2_v1.2.,2013-02-28 16:17:00,
2013-02-28 09:22:00,29.5,12.7,30.64,ESE,105,11.0,15.0,49,0.00,,,0.00,HR-IXPWINDi_r2_v1.2.,2013-02-28 16:22:00,
2013-02-28 09:28:00,30.1,12.8,30.64,ESE,105,12.0,15.0,48,0.00,,,0.00,HR-IXPWINDi_r2_v1.2.,2013-02-28 16:28:00,
2013-02-28 09:33:00,30.4,13.1,30.64,East,96,5.0,14.0,48,0.00,,,0.00,HR-IXPWINDi_r2_v1.2.,2013-02-28 16:33:00,
2013-02-28 09:38:00,31.2,13.8,30.63,ENE,77,11.0,14.0,48,0.00,,,0.00,HR-IXPWINDi_r2_v1.2.,2013-02-28 16:38:00,
2013-02-28 09:43:00,31.3,12.9,30.63,ESE,119,8.0,14.0,46,0.00,,,0.00,HR-IXPWINDi_r2_v1.2.,2013-02-28 16:43:00,
2013-02-28 09:49:00,31.4,12.5,30.63,ENE,71,9.0,14.0,45,0.00,,,0.00,HR-IXPWINDi_r2_v1.2.,2013-02-28 16:49:00,
2013-02-28 09:54:00,31.5,12.1,30.63,ESE,106,3.0,14.0,44,0.00,,,0.00,HR-IXPWINDi_r2_v1.2.,2013-02-28 16:54:00,
2013-02-28 09:59:00,31.7,13.3,30.63,ESE,106,9.0,12.0,46,0.00,,,0.00,HR-IXPWINDi_r2_v1.2.,2013-02-28 16:59:00,
2013-02-28 10:04:00,31.3,12.9,30.63,ESE,106,5.0,14.0,46,0.00,,,0.00,HR-IXPWINDi_r2_v1.2.,2013-02-28 17:04:00,
2013-02-28 10:09:00,31.2,12.9,30.62,East,99,11.0,15.0,46,0.00,,,0.00,HR-IXPWINDi_r2_v1.2.,2013-02-28 17:09:00,
2013-02-28 10:14:00,31.6,13.7,30.62,SSE,168,4.0,16.0,47,0.00,,,0.00,HR-IXPWINDi_r2_v1.2.,2013-02-28 17:14:00,
2013-02-28 10:20:00,32.8,14.3,30.62,ESE,122,8.0,15.0,46,0.00,,,0.00,HR-IXPWINDi_r2_v1.2.,2013-02-28 17:20:00,
2013-02-28 10:25:00,32.9,13.4,30.62,ENE,77,6.0,16.0,44,0.00,,,0.00,HR-IXPWINDi_r2_v1.2.,2013-02-28 17:25:00,
2013-02-28 10:30:00,33.2,13.2,30.62,ESE,107,8.0,16.0,43,0.00,,,0.00,HR-IXPWINDi_r2_v1.2.,2013-02-28 17:30:00,
2013-02-28 10:35:00,32.7,12.7,30.62,SE,129,4.0,14.0,43,0.00,,,0.00,HR-IXPWINDi_r2_v1.2.,2013-02-28 17:35:00,
2013-02-28 10:40:00,33.2,12.6,30.61,ESE,119,7.0,14.0,42,0.00,,,0.00,HR-IXPWINDi_r2_v1.2.,2013-02-28 17:40:00,
2013-02-28 10:46:00,33.4,12.8,30.61,ENE,78,9.0,13.0,42,0.00,,,0.00,HR-IXPWINDi_r2_v1.2.,2013-02-28 17:46:00,
2013-02-28 10:51:00,33.6,12.4,30.61,SSE,149,5.0,13.0,41,0.00,,,0.00,HR-IXPWINDi_r2_v1.2.,2013-02-28 17:51:00,
2013-02-28 10:56:00,33.9,12.7,30.61,East,99,6.0,12.0,41,0.00,,,0.00,HR-IXPWINDi_r2_v1.2.,2013-02-28 17:56:00,
2013-02-28 11:01:00,34.3,12.5,30.61,East,84,6.0,11.0,40,0.00,,,0.00,HR-IXPWINDi_r2_v1.2.,2013-02-28 18:01:00,
2013-02-28 11:06:00,34.6,12.2,30.61,ESE,115,2.0,11.0,39,0.00,,,0.00,HR-IXPWINDi_r2_v1.2.,2013-02-28 18:06:00,
2013-02-28 11:11:00,35.0,12.0,30.61,SSE,157,8.0,10.0,38,0.00,,,0.00,HR-IXPWINDi_r2_v1.2.,2013-02-28 18:11:00,
2013-02-28 11:17:00,35.3,12.3,30.60,SE,124,6.0,10.0,38,0.00,,,0.00,HR-IXPWINDi_r2_v1.2.,2013-02-28 18:17:00,
2013-02-28 11:22:00,35.0,11.4,30.60,ENE,63,5.0,12.0,37,0.00,,,0.00,HR-IXPWINDi_r2_v1.2.,2013-02-28 18:22:00,
2013-02-28 11:27:00,35.1,12.1,30.60,SE,146,5.0,12.0,38,0.00,,,0.00,HR-IXPWINDi_r2_v1.2.,2013-02-28 18:27:00,
2013-02-28 11:32:00,35.3,12.3,30.60,SE,127,4.0,12.0,38,0.00,,,0.00,HR-IXPWINDi_r2_v1.2.,2013-02-28 18:32:00,
2013-02-28 11:37:00,35.8,12.7,30.60,ESE,108,9.0,10.0,38,0.00,,,0.00,HR-IXPWINDi_r2_v1.2.,2013-02-28 18:37:00,
2013-02-28 11:42:00,36.2,13.1,30.60,ESE,115,5.0,10.0,38,0.00,,,0.00,HR-IXPWINDi_r2_v1.2.,2013-02-28 18:42:00,
2013-02-28 11:47:00,36.6,13.4,30.60,ESE,122,3.0,10.0,38,0.00,,,0.00,HR-IXPWINDi_r2_v1.2.,2013-02-28 18:47:00,
2013-02-28 11:52:00,37.0,13.8,30.59,ESE,113,4.0,9.0,38,0.00,,,0.00,HR-IXPWINDi_r2_v1.2.,2013-02-28 18:52:00,
2013-02-28 11:58:00,37.0,13.2,30.59,SSE,152,3.0,9.0,37,0.00,,,0.00,HR-IXPWINDi_r2_v1.2.,2013-02-28 18:58:00,
2013-02-28 12:03:00,37.6,14.3,30.59,SE,141,5.0,9.0,38,0.00,,,0.00,HR-IXPWINDi_r2_v1.2.,2013-02-28 19:03:00,
2013-02-28 12:08:00,38.1,14.1,30.59,ENE,73,3.0,8.0,37,0.00,,,0.00,HR-IXPWINDi_r2_v1.2.,2013-02-28 19:08:00,
2013-02-28 12:13:00,38.8,14.1,30.60,SE,129,4.0,8.0,36,0.00,,,0.00,HR-IXPWINDi_r2_v1.2.,2013-02-28 19:13:00,
2013-02-28 12:18:00,39.1,13.8,30.59,SSE,158,3.0,6.0,35,0.00,,,0.00,HR-IXPWINDi_r2_v1.2.,2013-02-28 19:18:00,
2013-02-28 12:24:00,40.1,14.7,30.59,East,86,2.0,6.0,35,0.00,,,0.00,HR-IXPWINDi_r2_v1.2.,2013-02-28 19:24:00,
2013-02-28 12:29:00,40.2,14.1,30.58,ESE,117,3.0,9.0,34,0.00,,,0.00,HR-IXPWINDi_r2_v1.2.,2013-02-28 19:29:00,
2013-02-28 12:34:00,40.1,14.0,30.58,East,79,1.0,9.0,34,0.00,,,0.00,HR-IXPWINDi_r2_v1.2.,2013-02-28 19:34:00,
2013-02-28 12:39:00,40.1,13.3,30.58,SE,141,3.0,7.0,33,0.00,,,0.00,HR-IXPWINDi_r2_v1.2.,2013-02-28 19:39:00,
2013-02-28 12:45:00,40.5,14.4,30.57,ESE,107,2.0,8.0,34,0.00,,,0.00,HR-IXPWINDi_r2_v1.2.,2013-02-28 19:45:00,
2013-02-28 12:50:00,40.7,13.9,30.57,East,79,1.0,8.0,33,0.00,,,0.00,HR-IXPWINDi_r2_v1.2.,2013-02-28 19:50:00,
2013-02-28 12:55:00,40.9,14.0,30.57,NE,56,4.0,10.0,33,0.00,,,0.00,HR-IXPWINDi_r2_v1.2.,2013-02-28 19:55:00,
2013-02-28 13:00:00,41.2,14.3,30.56,East,99,3.0,10.0,33,0.00,,,0.00,HR-IXPWINDi_r2_v1.2.,2013-02-28 20:00:00,
2013-02-28 13:06:00,41.7,14.7,30.55,ENE,74,8.0,8.0,33,0.00,,,0.00,HR-IXPWINDi_r2_v1.2.,2013-02-28 20:06:00,
2013-02-28 13:11:00,41.9,14.9,30.55,East,94,3.0,8.0,33,0.00,,,0.00,HR-IXPWINDi_r2_v1.2.,2013-02-28 20:11:00,
2013-02-28 13:16:00,41.6,14.6,30.55,NE,55,6.0,8.0,33,0.00,,,0.00,HR-IXPWINDi_r2_v1.2.,2013-02-28 20:16:00,
2013-02-28 13:21:00,41.9,14.2,30.55,East,99,2.0,6.0,32,0.00,,,0.00,HR-IXPWINDi_r2_v1.2.,2013-02-28 20:21:00,
2013-02-28 13:26:00,42.2,14.5,30.55,NE,51,3.0,6.0,32,0.00,,,0.00,HR-IXPWINDi_r2_v1.2.,2013-02-28 20:26:00,
2013-02-28 13:32:00,42.1,14.4,30.55,ENE,63,2.0,5.0,32,0.00,,,0.00,HR-IXPWINDi_r2_v1.2.,2013-02-28 20:32:00,
2013-02-28 13:37:00,42.4,13.9,30.55,ENE,57,2.0,5.0,31,0.00,,,0.00,HR-IXPWINDi_r2_v1.2.,2013-02-28 20:37:00,
2013-02-28 13:42:00,42.4,13.9,30.55,SE,129,1.0,5.0,31,0.00,,,0.00,HR-IXPWINDi_r2_v1.2.,2013-02-28 20:42:00,
2013-02-28 13:47:00,42.7,14.9,30.55,ENE,58,2.0,5.0,32,0.00,,,0.00,HR-IXPWINDi_r2_v1.2.,2013-02-28 20:47:00,
2013-02-28 13:56:00,43.3,14.7,30.54,NE,37,2.0,7.0,31,0.00,,,0.00,HR-IXPWINDi_r2_v1.2.,2013-02-28 20:56:00,
2013-02-28 14:02:00,43.5,14.9,30.54,ESE,113,3.0,8.0,31,0.00,,,0.00,HR-IXPWINDi_r2_v1.2.,2013-02-28 21:02:00,
2013-02-28 14:07:00,43.6,15.0,30.53,ESE,118,2.0,8.0,31,0.00,,,0.00,HR-IXPWINDi_r2_v1.2.,2013-02-28 21:07:00,
2013-02-28 14:12:00,43.5,14.9,30.53,North,1,1.0,6.0,31,0.00,,,0.00,HR-IXPWINDi_r2_v1.2.,2013-02-28 21:12:00,
2013-02-28 14:18:00,44.6,15.8,30.53,NNE,30,2.0,5.0,31,0.00,,,0.00,HR-IXPWINDi_r2_v1.2.,2013-02-28 21:18:00,
2013-02-28 14:23:00,45.0,15.4,30.53,SE,141,4.0,4.0,30,0.00,,,0.00,HR-IXPWINDi_r2_v1.2.,2013-02-28 21:23:00,
2013-02-28 14:28:00,45.2,15.6,30.53,SW,217,8.0,8.0,30,0.00,,,0.00,HR-IXPWINDi_r2_v1.2.,2013-02-28 21:28:00,
2013-02-28 14:33:00,45.0,15.4,30.53,NW,305,5.0,8.0,30,0.00,,,0.00,HR-IXPWINDi_r2_v1.2.,2013-02-28 21:33:00,
2013-02-28 14:38:00,44.7,15.2,30.53,West,266,1.0,8.0,30,0.00,,,0.00,HR-IXPWINDi_r2_v1.2.,2013-02-28 21:38:00,
2013-02-28 14:43:00,44.7,15.2,30.53,NNE,18,1.0,6.0,30,0.00,,,0.00,HR-IXPWINDi_r2_v1.2.,2013-02-28 21:43:00,
2013-02-28 14:53:00,44.6,15.1,30.52,NW,309,2.0,7.0,30,0.00,,,0.00,HR-IXPWINDi_r2_v1.2.,2013-02-28 21:53:00,
2013-02-28 14:58:00,44.8,16.0,30.52,WNW,302,3.0,7.0,31,0.00,,,0.00,HR-IXPWINDi_r2_v1.2.,2013-02-28 21:58:00,
2013-02-28 15:04:00,45.2,15.6,30.52,NNE,22,2.0,6.0,30,0.00,,,0.00,HR-IXPWINDi_r2_v1.2.,2013-02-28 22:04:00,
2013-02-28 15:09:00,45.5,15.9,30.52,NNW,333,3.0,7.0,30,0.00,,,0.00,HR-IXPWINDi_r2_v1.2.,2013-02-28 22:09:00,
2013-02-28 15:14:00,45.2,15.6,30.52,West,281,3.0,11.0,30,0.00,,,0.00,HR-IXPWINDi_r2_v1.2.,2013-02-28 22:14:00,
2013-02-28 15:19:00,45.5,15.9,30.52,WNW,282,5.0,11.0,30,0.00,,,0.00,HR-IXPWINDi_r2_v1.2.,2013-02-28 22:19:00,
2013-02-28 15:24:00,45.4,16.5,30.52,WNW,288,1.0,6.0,31,0.00,,,0.00,HR-IXPWINDi_r2_v1.2.,2013-02-28 22:24:00,
2013-02-28 15:30:00,45.6,16.7,30.52,NE,37,2.0,7.0,31,0.00,,,0.00,HR-IXPWINDi_r2_v1.2.,2013-02-28 22:30:00,
2013-02-28 15:35:00,45.6,16.0,30.53,NW,315,3.0,7.0,30,0.00,,,0.00,HR-IXPWINDi_r2_v1.2.,2013-02-28 22:35:00,
2013-02-28 15:40:00,45.7,16.8,30.52,NW,319,2.0,7.0,31,0.00,,,0.00,HR-IXPWINDi_r2_v1.2.,2013-02-28 22:40:00,
2013-02-28 15:45:00,45.9,17.0,30.52,NNE,14,5.0,6.0,31,0.00,,,0.00,HR-IXPWINDi_r2_v1.2.,2013-02-28 22:45:00,
2013-02-28 15:50:00,46.1,16.4,30.52,NNE,23,4.0,6.0,30,0.00,,,0.00,HR-IXPWINDi_r2_v1.2.,2013-02-28 22:50:00,
2013-02-28 15:55:00,45.7,16.1,30.52,WNW,286,4.0,7.0,30,0.00,,,0.00,HR-IXPWINDi_r2_v1.2.,2013-02-28 22:55:00,
2013-02-28 16:00:00,45.5,15.9,30.52,North,356,2.0,8.0,30,0.00,,,0.00,HR-IXPWINDi_r2_v1.2.,2013-02-28 23:00:00,
2013-02-28 16:06:00,45.7,16.1,30.52,NNW,332,6.0,8.0,30,0.00,,,0.00,HR-IXPWINDi_r2_v1.2.,2013-02-28 23:06:00,
2013-02-28 16:12:00,46.0,15.5,30.51,WNW,300,4.0,7.0,29,0.00,,,0.00,HR-IXPWINDi_r2_v1.2.,2013-02-28 23:12:00,
2013-02-28 16:17:00,46.0,15.5,30.51,WNW,290,4.0,8.0,29,0.00,,,0.00,HR-IXPWINDi_r2_v1.2.,2013-02-28 23:17:00,
2013-02-28 16:22:00,45.7,14.5,30.51,WNW,290,4.0,9.0,28,0.00,,,0.00,HR-IXPWINDi_r2_v1.2.,2013-02-28 23:22:00,
2013-02-28 16:27:00,45.8,14.6,30.50,WNW,288,8.0,9.0,28,0.00,,,0.00,HR-IXPWINDi_r2_v1.2.,2013-02-28 23:27:00,
2013-02-28 16:32:00,45.7,15.3,30.50,WNW,299,4.0,10.0,29,0.00,,,0.00,HR-IXPWINDi_r2_v1.2.,2013-02-28 23:32:00,
2013-02-28 16:38:00,45.7,14.5,30.50,WNW,297,7.0,10.0,28,0.00,,,0.00,HR-IXPWINDi_r2_v1.2.,2013-02-28 23:38:00,
2013-02-28 16:43:00,45.6,14.4,30.50,WNW,290,5.0,7.0,28,0.00,,,0.00,HR-IXPWINDi_r2_v1.2.,2013-02-28 23:43:00,
2013-02-28 16:52:00,45.5,14.3,30.51,NW,323,6.0,9.0,28,0.00,,,0.00,HR-IXPWINDi_r2_v1.2.,2013-02-28 23:52:00,
2013-02-28 16:57:00,45.5,14.3,30.51,NNW,345,4.0,9.0,28,0.00,,,0.00,HR-IXPWINDi_r2_v1.2.,2013-02-28 23:57:00,
2013-02-28 17:02:00,45.2,14.8,30.51,WNW,287,4.0,9.0,29,0.00,,,0.00,HR-IXPWINDi_r2_v1.2.,2013-03-01 00:02:00,
2013-02-28 17:07:00,45.3,14.9,30.50,WNW,284,5.0,9.0,29,0.00,,,0.00,HR-IXPWINDi_r2_v1.2.,2013-03-01 00:07:00,
2013-02-28 17:13:00,45.0,14.7,30.50,WNW,290,5.0,9.0,29,0.00,,,0.00,HR-IXPWINDi_r2_v1.2.,2013-03-01 00:13:00,
2013-02-28 17:18:00,44.9,14.6,30.50,WNW,287,5.0,9.0,29,0.00,,,0.00,HR-IXPWINDi_r2_v1.2.,2013-03-01 00:18:00,
2013-02-28 17:23:00,44.7,14.4,30.50,West,277,4.0,7.0,29,0.00,,,0.00,HR-IXPWINDi_r2_v1.2.,2013-03-01 00:23:00,
2013-02-28 17:29:00,44.5,14.2,30.50,West,274,5.0,6.0,29,0.00,,,0.00,HR-IXPWINDi_r2_v1.2.,2013-03-01 00:29:00,
2013-02-28 17:34:00,44.2,14.7,30.51,North,351,5.0,6.0,30,0.00,,,0.00,HR-IXPWINDi_r2_v1.2.,2013-03-01 00:34:00,
2013-02-28 17:39:00,43.9,15.2,30.51,WNW,288,2.0,7.0,31,0.00,,,0.00,HR-IXPWINDi_r2_v1.2.,2013-03-01 00:39:00,
2013-02-28 17:44:00,43.5,14.9,30.51,NW,313,1.0,7.0,31,0.00,,,0.00,HR-IXPWINDi_r2_v1.2.,2013-03-01 00:44:00,
2013-02-28 17:49:00,43.2,14.6,30.52,NW,309,3.0,6.0,31,0.00,,,0.00,HR-IXPWINDi_r2_v1.2.,2013-03-01 00:49:00,
2013-02-28 17:54:00,42.9,14.4,30.52,WNW,297,4.0,6.0,31,0.00,,,0.00,HR-IXPWINDi_r2_v1.2.,2013-03-01 00:54:00,
2013-02-28 18:00:00,42.4,14.6,30.52,NW,311,2.0,6.0,32,0.00,,,0.00,HR-IXPWINDi_r2_v1.2.,2013-03-01 01:00:00,
2013-02-28 18:05:00,41.9,14.9,30.52,West,278,3.0,5.0,33,0.00,,,0.00,HR-IXPWINDi_r2_v1.2.,2013-03-01 01:05:00,
2013-02-28 18:10:00,41.4,15.1,30.52,WNW,294,3.0,5.0,34,0.00,,,0.00,HR-IXPWINDi_r2_v1.2.,2013-03-01 01:10:00,
2013-02-28 18:15:00,41.2,15.6,30.52,WNW,285,1.0,5.0,35,0.00,,,0.00,HR-IXPWINDi_r2_v1.2.,2013-03-01 01:15:00,
2013-02-28 18:20:00,40.7,15.8,30.52,West,281,3.0,4.0,36,0.00,,,0.00,HR-IXPWINDi_r2_v1.2.,2013-03-01 01:20:00,
2013-02-28 18:25:00,40.3,16.1,30.53,WNW,294,2.0,4.0,37,0.00,,,0.00,HR-IXPWINDi_r2_v1.2.,2013-03-01 01:25:00,
2013-02-28 18:31:00,40.0,16.5,30.53,WNW,302,2.0,3.0,38,0.00,,,0.00,HR-IXPWINDi_r2_v1.2.,2013-03-01 01:31:00,
2013-02-28 18:36:00,39.8,16.3,30.53,WNW,283,1.0,3.0,38,0.00,,,0.00,HR-IXPWINDi_r2_v1.2.,2013-03-01 01:36:00,
2013-02-28 18:41:00,39.6,16.1,30.53,West,277,1.0,3.0,38,0.00,,,0.00,HR-IXPWINDi_r2_v1.2.,2013-03-01 01:41:00,
2013-02-28 18:46:00,39.3,16.4,30.53,West,277,0.0,2.0,39,0.00,,,0.00,HR-IXPWINDi_r2_v1.2.,2013-03-01 01:46:00,
2013-02-28 18:51:00,38.9,16.6,30.53,West,277,0.0,2.0,40,0.00,,,0.00,HR-IXPWINDi_r2_v1.2.,2013-03-01 01:51:00,
2013-02-28 18:56:00,38.5,16.3,30.53,West,277,0.0,1.0,40,0.00,,,0.00,HR-IXPWINDi_r2_v1.2.,2013-03-01 01:56:00,
2013-02-28 19:01:00,38.1,16.5,30.53,West,278,0.0,0.0,41,0.00,,,0.00,HR-IXPWINDi_r2_v1.2.,2013-03-01 02:01:00,
2013-02-28 19:06:00,37.7,16.7,30.53,West,277,0.0,1.0,42,0.00,,,0.00,HR-IXPWINDi_r2_v1.2.,2013-03-01 02:06:00,
2013-02-28 19:12:00,37.3,16.9,30.53,WNW,287,0.0,1.0,43,0.00,,,0.00,HR-IXPWINDi_r2_v1.2.,2013-03-01 02:12:00,
2013-02-28 19:17:00,36.9,17.0,30.53,WNW,286,0.0,1.0,44,0.00,,,0.00,HR-IXPWINDi_r2_v1.2.,2013-03-01 02:17:00,
2013-02-28 19:22:00,36.6,17.3,30.53,WNW,287,0.0,1.0,45,0.00,,,0.00,HR-IXPWINDi_r2_v1.2.,2013-03-01 02:22:00,
2013-02-28 19:27:00,36.0,17.2,30.53,NE,46,1.0,1.0,46,0.00,,,0.00,HR-IXPWINDi_r2_v1.2.,2013-03-01 02:27:00,
2013-02-28 19:32:00,35.5,16.8,30.53,ENE,72,1.0,3.0,46,0.00,,,0.00,HR-IXPWINDi_r2_v1.2.,2013-03-01 02:32:00,
2013-02-28 19:37:00,35.3,17.6,30.53,ENE,67,1.0,3.0,48,0.00,,,0.00,HR-IXPWINDi_r2_v1.2.,2013-03-01 02:37:00,
2013-02-28 19:43:00,34.9,17.2,30.53,ENE,65,0.0,2.0,48,0.00,,,0.00,HR-IXPWINDi_r2_v1.2.,2013-03-01 02:43:00,
2013-02-28 19:48:00,34.4,17.2,30.53,ENE,65,0.0,2.0,49,0.00,,,0.00,HR-IXPWINDi_r2_v1.2.,2013-03-01 02:48:00,
2013-02-28 19:53:00,34.0,17.3,30.54,ENE,65,0.0,0.0,50,0.00,,,0.00,HR-IXPWINDi_r2_v1.2.,2013-03-01 02:53:00,
2013-02-28 19:58:00,33.9,17.7,30.53,ENE,65,0.0,0.0,51,0.00,,,0.00,HR-IXPWINDi_r2_v1.2.,2013-03-01 02:58:00,
2013-02-28 20:03:00,33.7,17.5,30.53,ENE,76,0.0,1.0,51,0.00,,,0.00,HR-IXPWINDi_r2_v1.2.,2013-03-01 03:03:00,
2013-02-28 20:09:00,33.4,17.7,30.54,ENE,76,1.0,1.0,52,0.00,,,0.00,HR-IXPWINDi_r2_v1.2.,2013-03-01 03:09:00,
2013-02-28 20:14:00,33.1,18.3,30.54,ENE,77,0.0,1.0,54,0.00,,,0.00,HR-IXPWINDi_r2_v1.2.,2013-03-01 03:14:00,
2013-02-28 20:19:00,32.8,18.0,30.54,ENE,77,0.0,1.0,54,0.00,,,0.00,HR-IXPWINDi_r2_v1.2.,2013-03-01 03:19:00,
2013-02-28 20:24:00,32.5,18.1,30.54,ENE,76,1.0,1.0,55,0.00,,,0.00,HR-IXPWINDi_r2_v1.2.,2013-03-01 03:24:00,
2013-02-28 20:30:00,32.5,18.1,30.54,ENE,76,0.0,1.0,55,0.00,,,0.00,HR-IXPWINDi_r2_v1.2.,2013-03-01 03:30:00,
2013-02-28 20:35:00,32.3,18.4,30.54,ENE,76,0.0,1.0,56,0.00,,,0.00,HR-IXPWINDi_r2_v1.2.,2013-03-01 03:35:00,
2013-02-28 20:40:00,32.0,18.1,30.54,ENE,77,1.0,1.0,56,0.00,,,0.00,HR-IXPWINDi_r2_v1.2.,2013-03-01 03:40:00,
2013-02-28 20:45:00,31.8,18.7,30.55,ENE,76,1.0,1.0,58,0.00,,,0.00,HR-IXPWINDi_r2_v1.2.,2013-03-01 03:45:00,
2013-02-28 20:50:00,31.5,18.8,30.55,NE,53,1.0,2.0,59,0.00,,,0.00,HR-IXPWINDi_r2_v1.2.,2013-03-01 03:50:00,
2013-02-28 20:55:00,31.1,18.8,30.55,NE,39,1.0,2.0,60,0.00,,,0.00,HR-IXPWINDi_r2_v1.2.,2013-03-01 03:55:00,
2013-02-28 21:01:00,30.8,19.3,30.55,NE,39,0.0,2.0,62,0.00,,,0.00,HR-IXPWINDi_r2_v1.2.,2013-03-01 04:01:00,
2013-02-28 21:06:00,30.6,19.5,30.55,NE,39,2.0,2.0,63,0.00,,,0.00,HR-IXPWINDi_r2_v1.2.,2013-03-01 04:06:00,
2013-02-28 21:11:00,30.4,20.1,30.56,NE,39,1.0,2.0,65,0.00,,,0.00,HR-IXPWINDi_r2_v1.2.,2013-03-01 04:11:00,
2013-02-28 21:16:00,30.2,20.2,30.56,NE,39,0.0,2.0,66,0.00,,,0.00,HR-IXPWINDi_r2_v1.2.,2013-03-01 04:16:00,
2013-02-28 21:22:00,30.0,20.0,30.56,NE,39,0.0,1.0,66,0.00,,,0.00,HR-IXPWINDi_r2_v1.2.,2013-03-01 04:22:00,
2013-02-28 21:27:00,30.0,20.4,30.57,NE,39,1.0,1.0,67,0.00,,,0.00,HR-IXPWINDi_r2_v1.2.,2013-03-01 04:27:00,
2013-02-28 21:32:00,30.0,20.4,30.57,NE,38,0.0,1.0,67,0.00,,,0.00,HR-IXPWINDi_r2_v1.2.,2013-03-01 04:32:00,
2013-02-28 21:37:00,29.7,20.1,30.57,NE,39,0.0,1.0,67,0.00,,,0.00,HR-IXPWINDi_r2_v1.2.,2013-03-01 04:37:00,
2013-02-28 21:43:00,29.6,20.0,30.57,NE,39,0.0,1.0,67,0.00,,,0.00,HR-IXPWINDi_r2_v1.2.,2013-03-01 04:43:00,
2013-02-28 21:48:00,29.6,20.3,30.57,NE,39,0.0,0.0,68,0.00,,,0.00,HR-IXPWINDi_r2_v1.2.,2013-03-01 04:48:00,
2013-02-28 21:53:00,29.3,20.1,30.57,NE,39,0.0,0.0,68,0.00,,,0.00,HR-IXPWINDi_r2_v1.2.,2013-03-01 04:53:00,
2013-02-28 21:58:00,29.2,20.0,30.58,NE,39,0.0,0.0,68,0.00,,,0.00,HR-IXPWINDi_r2_v1.2.,2013-03-01 04:58:00,
2013-02-28 22:06:00,29.1,19.9,30.57,NE,39,0.0,1.0,68,0.00,,,0.00,HR-IXPWINDi_r2_v1.2.,2013-03-01 05:06:00,
2013-02-28 22:11:00,29.0,19.8,30.58,NE,39,0.0,1.0,68,0.00,,,0.00,HR-IXPWINDi_r2_v1.2.,2013-03-01 05:11:00,
2013-02-28 22:16:00,28.8,19.9,30.58,NE,39,0.0,0.0,69,0.00,,,0.00,HR-IXPWINDi_r2_v1.2.,2013-03-01 05:16:00,
2013-02-28 22:21:00,28.8,19.9,30.58,NE,39,0.0,0.0,69,0.00,,,0.00,HR-IXPWINDi_r2_v1.2.,2013-03-01 05:21:00,
2013-02-28 22:27:00,28.6,19.7,30.58,NE,39,0.0,0.0,69,0.00,,,0.00,HR-IXPWINDi_r2_v1.2.,2013-03-01 05:27:00,
2013-02-28 22:32:00,28.4,19.9,30.58,NE,38,0.0,0.0,70,0.00,,,0.00,HR-IXPWINDi_r2_v1.2.,2013-03-01 05:32:00,
2013-02-28 22:37:00,28.2,19.7,30.58,NE,39,0.0,0.0,70,0.00,,,0.00,HR-IXPWINDi_r2_v1.2.,2013-03-01 05:37:00,
2013-02-28 22:42:00,28.1,20.2,30.58,NE,39,0.0,1.0,72,0.00,,,0.00,HR-IXPWINDi_r2_v1.2.,2013-03-01 05:42:00,
2013-02-28 22:48:00,28.1,19.9,30.58,NE,39,0.0,1.0,71,0.00,,,0.00,HR-IXPWINDi_r2_v1.2.,2013-03-01 05:48:00,
2013-02-28 22:54:00,27.9,20.1,30.59,NE,38,1.0,1.0,72,0.00,,,0.00,HR-IXPWINDi_r2_v1.2.,2013-03-01 05:54:00,
2013-02-28 23:01:00,27.7,20.2,30.59,NE,39,0.0,1.0,73,0.00,,,0.00,HR-IXPWINDi_r2_v1.2.,2013-03-01 06:01:00,
2013-02-28 23:06:00,27.6,20.1,30.59,NNW,340,0.0,1.0,73,0.00,,,0.00,HR-IXPWINDi_r2_v1.2.,2013-03-01 06:06:00,
2013-02-28 23:11:00,27.4,20.2,30.58,NNW,344,0.0,1.0,74,0.00,,,0.00,HR-IXPWINDi_r2_v1.2.,2013-03-01 06:11:00,
2013-02-28 23:16:00,27.2,20.0,30.58,NNW,344,0.0,1.0,74,0.00,,,0.00,HR-IXPWINDi_r2_v1.2.,2013-03-01 06:16:00,
2013-02-28 23:22:00,26.8,19.6,30.58,NNW,344,0.0,0.0,74,0.00,,,0.00,HR-IXPWINDi_r2_v1.2.,2013-03-01 06:22:00,
2013-02-28 23:27:00,26.7,20.2,30.58,WSW,244,0.0,0.0,76,0.00,,,0.00,HR-IXPWINDi_r2_v1.2.,2013-03-01 06:27:00,
2013-02-28 23:32:00,27.1,20.2,30.58,WSW,245,0.0,0.0,75,0.00,,,0.00,HR-IXPWINDi_r2_v1.2.,2013-03-01 06:32:00,
2013-02-28 23:37:00,27.1,19.9,30.58,WSW,245,0.0,0.0,74,0.00,,,0.00,HR-IXPWINDi_r2_v1.2.,2013-03-01 06:37:00,
2013-02-28 23:43:00,27.1,20.2,30.57,WSW,244,0.0,0.0,75,0.00,,,0.00,HR-IXPWINDi_r2_v1.2.,2013-03-01 06:43:00,
2013-02-28 23:48:00,26.8,20.0,30.58,West,270,1.0,2.0,75,0.00,,,0.00,HR-IXPWINDi_r2_v1.2.,2013-03-01 06:48:00,
2013-02-28 23:53:00,26.5,20.0,30.58,West,270,1.0,2.0,76,0.00,,,0.00,HR-IXPWINDi_r2_v1.2.,2013-03-01 06:53:00,
2013-02-28 23:58:00,26.3,20.1,30.58,West,270,1.0,2.0,77,0.00,,,0.00,HR-IXPWINDi_r2_v1.2.,2013-03-01 06:58:00,